sensor_id;sensor_type;location;lat;lon;timestamp;P1;durP1;ratioP1;P2;durP2;ratioP2
60054;SDS011;45930;53.514;55.904;2022-12-29T00:00:33;9.33;;;5.83;;
60054;SDS011;45930;53.514;55.904;2022-12-29T00:01:35;12.07;;;5.77;;
60054;SDS011;45930;53.514;55.904;2022-12-29T00:02:36;12.03;;;5.20;;
60054;SDS011;45930;53.514;55.904;2022-12-29T00:03:37;13.30;;;6.77;;
60054;SDS011;45930;53.514;55.904;2022-12-29T00:04:38;10.37;;;5.30;;
60054;SDS011;45930;53.514;55.904;2022-12-29T00:05:38;10.43;;;6.40;;
60054;SDS011;45930;53.514;55.904;2022-12-29T00:06:39;16.57;;;5.53;;
60054;SDS011;45930;53.514;55.904;2022-12-29T00:07:40;10.97;;;5.87;;
60054;SDS011;45930;53.514;55.904;2022-12-29T00:08:41;11.20;;;5.50;;
60054;SDS011;45930;53.514;55.904;2022-12-29T00:09:42;10.37;;;5.93;;
60054;SDS011;45930;53.514;55.904;2022-12-29T00:10:43;9.43;;;5.87;;
60054;SDS011;45930;53.514;55.904;2022-12-29T00:11:43;10.23;;;5.97;;
60054;SDS011;45930;53.514;55.904;2022-12-29T00:12:44;12.87;;;6.10;;
60054;SDS011;45930;53.514;55.904;2022-12-29T00:14:03;10.23;;;5.10;;
60054;SDS011;45930;53.514;55.904;2022-12-29T00:15:23;13.07;;;5.73;;
60054;SDS011;45930;53.514;55.904;2022-12-29T00:16:43;8.27;;;6.03;;
60054;SDS011;45930;53.514;55.904;2022-12-29T00:17:45;11.87;;;6.63;;
60054;SDS011;45930;53.514;55.904;2022-12-29T00:18:45;11.87;;;6.37;;
60054;SDS011;45930;53.514;55.904;2022-12-29T00:19:46;10.13;;;5.63;;
60054;SDS011;45930;53.514;55.904;2022-12-29T00:22:24;11.20;;;4.57;;
60054;SDS011;45930;53.514;55.904;2022-12-29T00:23:44;10.10;;;5.70;;
60054;SDS011;45930;53.514;55.904;2022-12-29T00:25:04;12.20;;;5.50;;
60054;SDS011;45930;53.514;55.904;2022-12-29T00:26:24;8.10;;;5.13;;
60054;SDS011;45930;53.514;55.904;2022-12-29T00:27:43;10.73;;;5.57;;
60054;SDS011;45930;53.514;55.904;2022-12-29T00:29:03;15.50;;;6.77;;
60054;SDS011;45930;53.514;55.904;2022-12-29T00:30:23;13.73;;;6.20;;
60054;SDS011;45930;53.514;55.904;2022-12-29T00:31:42;13.47;;;6.87;;
60054;SDS011;45930;53.514;55.904;2022-12-29T00:33:11;16.23;;;7.80;;
60054;SDS011;45930;53.514;55.904;2022-12-29T00:34:33;14.17;;;6.87;;
60054;SDS011;45930;53.514;55.904;2022-12-29T00:35:53;13.00;;;7.23;;
60054;SDS011;45930;53.514;55.904;2022-12-29T00:36:57;13.73;;;8.80;;
60054;SDS011;45930;53.514;55.904;2022-12-29T00:37:59;17.27;;;7.70;;
60054;SDS011;45930;53.514;55.904;2022-12-29T00:39:22;17.23;;;8.47;;
60054;SDS011;45930;53.514;55.904;2022-12-29T00:40:41;17.63;;;8.97;;
60054;SDS011;45930;53.514;55.904;2022-12-29T00:43:25;15.80;;;8.13;;
60054;SDS011;45930;53.514;55.904;2022-12-29T00:44:45;14.90;;;8.40;;
60054;SDS011;45930;53.514;55.904;2022-12-29T00:45:45;21.97;;;9.57;;
60054;SDS011;45930;53.514;55.904;2022-12-29T00:46:46;15.80;;;9.17;;
60054;SDS011;45930;53.514;55.904;2022-12-29T00:47:47;15.73;;;7.93;;
60054;SDS011;45930;53.514;55.904;2022-12-29T00:48:48;14.73;;;7.23;;
60054;SDS011;45930;53.514;55.904;2022-12-29T00:50:07;12.57;;;7.13;;
60054;SDS011;45930;53.514;55.904;2022-12-29T00:51:08;15.97;;;7.87;;
60054;SDS011;45930;53.514;55.904;2022-12-29T00:52:10;22.13;;;8.07;;
60054;SDS011;45930;53.514;55.904;2022-12-29T00:53:12;20.60;;;8.73;;
60054;SDS011;45930;53.514;55.904;2022-12-29T00:54:13;18.37;;;7.83;;
60054;SDS011;45930;53.514;55.904;2022-12-29T00:55:14;13.07;;;7.00;;
60054;SDS011;45930;53.514;55.904;2022-12-29T00:56:15;19.90;;;7.57;;
60054;SDS011;45930;53.514;55.904;2022-12-29T00:57:16;18.37;;;8.10;;
60054;SDS011;45930;53.514;55.904;2022-12-29T00:58:17;14.57;;;9.40;;
60054;SDS011;45930;53.514;55.904;2022-12-29T00:59:18;18.13;;;8.70;;
60054;SDS011;45930;53.514;55.904;2022-12-29T01:00:19;19.33;;;9.70;;
60054;SDS011;45930;53.514;55.904;2022-12-29T01:01:20;16.70;;;9.63;;
60054;SDS011;45930;53.514;55.904;2022-12-29T01:02:20;27.87;;;10.80;;
60054;SDS011;45930;53.514;55.904;2022-12-29T01:03:21;24.57;;;10.97;;
60054;SDS011;45930;53.514;55.904;2022-12-29T01:04:23;17.67;;;9.33;;
60054;SDS011;45930;53.514;55.904;2022-12-29T01:05:25;15.77;;;9.70;;
60054;SDS011;45930;53.514;55.904;2022-12-29T01:06:25;11.50;;;7.23;;
60054;SDS011;45930;53.514;55.904;2022-12-29T01:07:26;11.63;;;7.13;;
60054;SDS011;45930;53.514;55.904;2022-12-29T01:08:27;13.37;;;7.33;;
60054;SDS011;45930;53.514;55.904;2022-12-29T01:09:28;11.33;;;6.97;;
60054;SDS011;45930;53.514;55.904;2022-12-29T01:10:57;10.93;;;5.97;;
60054;SDS011;45930;53.514;55.904;2022-12-29T01:12:02;11.47;;;6.20;;
60054;SDS011;45930;53.514;55.904;2022-12-29T01:13:04;11.97;;;6.60;;
60054;SDS011;45930;53.514;55.904;2022-12-29T01:14:05;11.83;;;6.20;;
60054;SDS011;45930;53.514;55.904;2022-12-29T01:15:07;12.23;;;7.00;;
60054;SDS011;45930;53.514;55.904;2022-12-29T01:16:09;10.10;;;6.50;;
60054;SDS011;45930;53.514;55.904;2022-12-29T01:17:10;14.33;;;7.40;;
60054;SDS011;45930;53.514;55.904;2022-12-29T01:18:11;13.63;;;5.77;;
60054;SDS011;45930;53.514;55.904;2022-12-29T01:19:12;13.07;;;5.77;;
60054;SDS011;45930;53.514;55.904;2022-12-29T01:20:13;11.93;;;6.27;;
60054;SDS011;45930;53.514;55.904;2022-12-29T01:21:14;11.37;;;6.57;;
60054;SDS011;45930;53.514;55.904;2022-12-29T01:22:15;10.23;;;5.87;;
60054;SDS011;45930;53.514;55.904;2022-12-29T01:23:15;11.63;;;6.50;;
60054;SDS011;45930;53.514;55.904;2022-12-29T01:24:17;14.90;;;6.33;;
60054;SDS011;45930;53.514;55.904;2022-12-29T01:25:19;12.53;;;6.13;;
60054;SDS011;45930;53.514;55.904;2022-12-29T01:26:20;10.07;;;5.03;;
60054;SDS011;45930;53.514;55.904;2022-12-29T01:27:21;11.80;;;6.50;;
60054;SDS011;45930;53.514;55.904;2022-12-29T01:28:22;13.60;;;7.17;;
60054;SDS011;45930;53.514;55.904;2022-12-29T01:29:23;12.33;;;6.33;;
60054;SDS011;45930;53.514;55.904;2022-12-29T01:30:23;13.03;;;6.17;;
60054;SDS011;45930;53.514;55.904;2022-12-29T01:31:24;9.47;;;5.23;;
60054;SDS011;45930;53.514;55.904;2022-12-29T01:32:25;11.20;;;5.73;;
60054;SDS011;45930;53.514;55.904;2022-12-29T01:33:26;11.27;;;5.30;;
60054;SDS011;45930;53.514;55.904;2022-12-29T01:34:26;13.57;;;6.20;;
60054;SDS011;45930;53.514;55.904;2022-12-29T01:35:27;8.70;;;5.40;;
60054;SDS011;45930;53.514;55.904;2022-12-29T01:36:28;11.27;;;5.60;;
60054;SDS011;45930;53.514;55.904;2022-12-29T01:37:30;12.27;;;6.43;;
60054;SDS011;45930;53.514;55.904;2022-12-29T01:38:31;11.73;;;5.70;;
60054;SDS011;45930;53.514;55.904;2022-12-29T01:39:32;12.07;;;5.90;;
60054;SDS011;45930;53.514;55.904;2022-12-29T01:40:33;10.53;;;5.37;;
60054;SDS011;45930;53.514;55.904;2022-12-29T01:41:33;11.27;;;6.13;;
60054;SDS011;45930;53.514;55.904;2022-12-29T01:42:34;13.23;;;5.50;;
60054;SDS011;45930;53.514;55.904;2022-12-29T01:43:39;11.13;;;5.23;;
60054;SDS011;45930;53.514;55.904;2022-12-29T01:44:54;8.60;;;4.63;;
60054;SDS011;45930;53.514;55.904;2022-12-29T01:45:56;9.57;;;4.93;;
60054;SDS011;45930;53.514;55.904;2022-12-29T01:46:57;11.77;;;5.90;;
60054;SDS011;45930;53.514;55.904;2022-12-29T01:47:59;10.03;;;6.37;;
60054;SDS011;45930;53.514;55.904;2022-12-29T01:50:25;11.43;;;5.43;;
60054;SDS011;45930;53.514;55.904;2022-12-29T01:51:41;11.00;;;4.83;;
60054;SDS011;45930;53.514;55.904;2022-12-29T01:52:50;10.30;;;5.47;;
60054;SDS011;45930;53.514;55.904;2022-12-29T01:53:58;10.53;;;5.30;;
60054;SDS011;45930;53.514;55.904;2022-12-29T01:55:04;8.63;;;4.90;;
60054;SDS011;45930;53.514;55.904;2022-12-29T01:56:07;11.43;;;5.83;;
60054;SDS011;45930;53.514;55.904;2022-12-29T01:57:13;10.20;;;5.97;;
60054;SDS011;45930;53.514;55.904;2022-12-29T01:58:20;8.63;;;4.90;;
60054;SDS011;45930;53.514;55.904;2022-12-29T01:59:30;13.20;;;5.73;;
60054;SDS011;45930;53.514;55.904;2022-12-29T02:00:35;8.83;;;4.77;;
60054;SDS011;45930;53.514;55.904;2022-12-29T02:01:37;10.10;;;4.90;;
60054;SDS011;45930;53.514;55.904;2022-12-29T02:02:38;11.80;;;5.83;;
60054;SDS011;45930;53.514;55.904;2022-12-29T02:03:40;9.03;;;5.00;;
60054;SDS011;45930;53.514;55.904;2022-12-29T02:04:42;9.70;;;5.03;;
60054;SDS011;45930;53.514;55.904;2022-12-29T02:07:33;11.37;;;5.77;;
60054;SDS011;45930;53.514;55.904;2022-12-29T02:08:34;12.43;;;4.83;;
60054;SDS011;45930;53.514;55.904;2022-12-29T02:09:35;11.57;;;5.50;;
60054;SDS011;45930;53.514;55.904;2022-12-29T02:10:36;13.67;;;6.40;;
60054;SDS011;45930;53.514;55.904;2022-12-29T02:11:37;9.93;;;5.53;;
60054;SDS011;45930;53.514;55.904;2022-12-29T02:12:39;13.07;;;6.20;;
60054;SDS011;45930;53.514;55.904;2022-12-29T02:13:40;10.27;;;4.90;;
60054;SDS011;45930;53.514;55.904;2022-12-29T02:14:41;9.20;;;5.20;;
60054;SDS011;45930;53.514;55.904;2022-12-29T02:23:31;10.60;;;5.83;;
60054;SDS011;45930;53.514;55.904;2022-12-29T02:28:06;9.97;;;5.00;;
60054;SDS011;45930;53.514;55.904;2022-12-29T02:28:50;9.43;;;5.50;;
60054;SDS011;45930;53.514;55.904;2022-12-29T02:34:16;10.70;;;5.40;;
60054;SDS011;45930;53.514;55.904;2022-12-29T02:42:23;10.83;;;4.73;;
60054;SDS011;45930;53.514;55.904;2022-12-29T02:45:20;8.43;;;5.37;;
60054;SDS011;45930;53.514;55.904;2022-12-29T02:47:00;10.37;;;5.17;;
60054;SDS011;45930;53.514;55.904;2022-12-29T02:47:48;9.17;;;4.83;;
60054;SDS011;45930;53.514;55.904;2022-12-29T02:49:02;8.03;;;5.00;;
60054;SDS011;45930;53.514;55.904;2022-12-29T02:50:19;9.13;;;5.13;;
60054;SDS011;45930;53.514;55.904;2022-12-29T02:51:25;10.23;;;4.43;;
60054;SDS011;45930;53.514;55.904;2022-12-29T02:52:35;9.40;;;4.83;;
60054;SDS011;45930;53.514;55.904;2022-12-29T02:53:39;8.18;;;5.43;;
60054;SDS011;45930;53.514;55.904;2022-12-29T02:54:59;8.37;;;4.43;;
60054;SDS011;45930;53.514;55.904;2022-12-29T02:56:00;9.77;;;4.83;;
60054;SDS011;45930;53.514;55.904;2022-12-29T02:57:00;5.93;;;4.37;;
60054;SDS011;45930;53.514;55.904;2022-12-29T02:58:06;7.77;;;5.00;;
60054;SDS011;45930;53.514;55.904;2022-12-29T02:59:16;10.00;;;5.57;;
60054;SDS011;45930;53.514;55.904;2022-12-29T03:00:17;8.90;;;4.83;;
60054;SDS011;45930;53.514;55.904;2022-12-29T03:07:27;9.77;;;5.10;;
60054;SDS011;45930;53.514;55.904;2022-12-29T03:11:11;10.60;;;5.03;;
60054;SDS011;45930;53.514;55.904;2022-12-29T03:17:09;8.90;;;5.00;;
60054;SDS011;45930;53.514;55.904;2022-12-29T03:19:47;9.40;;;5.03;;
60054;SDS011;45930;53.514;55.904;2022-12-29T03:20:54;10.03;;;5.33;;
60054;SDS011;45930;53.514;55.904;2022-12-29T03:22:01;10.17;;;5.27;;
60054;SDS011;45930;53.514;55.904;2022-12-29T03:23:27;9.17;;;5.13;;
60054;SDS011;45930;53.514;55.904;2022-12-29T03:24:32;8.17;;;5.13;;
60054;SDS011;45930;53.514;55.904;2022-12-29T03:25:38;9.50;;;4.30;;
60054;SDS011;45930;53.514;55.904;2022-12-29T03:26:43;10.67;;;5.77;;
60054;SDS011;45930;53.514;55.904;2022-12-29T03:27:49;9.60;;;5.03;;
60054;SDS011;45930;53.514;55.904;2022-12-29T03:28:53;9.67;;;4.77;;
60054;SDS011;45930;53.514;55.904;2022-12-29T03:29:58;8.63;;;5.07;;
60054;SDS011;45930;53.514;55.904;2022-12-29T03:31:04;8.07;;;5.20;;
60054;SDS011;45930;53.514;55.904;2022-12-29T03:32:07;9.23;;;6.07;;
60054;SDS011;45930;53.514;55.904;2022-12-29T03:33:10;7.90;;;5.53;;
60054;SDS011;45930;53.514;55.904;2022-12-29T03:34:16;9.43;;;5.67;;
60054;SDS011;45930;53.514;55.904;2022-12-29T03:35:21;10.73;;;5.47;;
60054;SDS011;45930;53.514;55.904;2022-12-29T03:36:30;9.67;;;5.63;;
60054;SDS011;45930;53.514;55.904;2022-12-29T03:37:41;7.67;;;4.77;;
60054;SDS011;45930;53.514;55.904;2022-12-29T03:38:59;10.80;;;5.40;;
60054;SDS011;45930;53.514;55.904;2022-12-29T03:40:09;10.17;;;5.13;;
60054;SDS011;45930;53.514;55.904;2022-12-29T03:41:11;11.13;;;5.07;;
60054;SDS011;45930;53.514;55.904;2022-12-29T03:42:19;8.23;;;4.63;;
60054;SDS011;45930;53.514;55.904;2022-12-29T03:43:21;9.53;;;5.30;;
60054;SDS011;45930;53.514;55.904;2022-12-29T03:44:31;10.13;;;5.47;;
60054;SDS011;45930;53.514;55.904;2022-12-29T03:45:33;9.37;;;4.97;;
60054;SDS011;45930;53.514;55.904;2022-12-29T03:46:34;10.03;;;5.47;;
60054;SDS011;45930;53.514;55.904;2022-12-29T03:47:34;10.07;;;5.83;;
60054;SDS011;45930;53.514;55.904;2022-12-29T03:48:35;7.00;;;4.50;;
60054;SDS011;45930;53.514;55.904;2022-12-29T03:49:36;9.00;;;5.03;;
60054;SDS011;45930;53.514;55.904;2022-12-29T03:50:37;7.97;;;5.13;;
60054;SDS011;45930;53.514;55.904;2022-12-29T03:51:38;8.13;;;4.80;;
60054;SDS011;45930;53.514;55.904;2022-12-29T03:52:38;9.63;;;4.80;;
60054;SDS011;45930;53.514;55.904;2022-12-29T03:53:39;10.17;;;5.47;;
60054;SDS011;45930;53.514;55.904;2022-12-29T03:54:40;7.67;;;5.00;;
60054;SDS011;45930;53.514;55.904;2022-12-29T03:55:41;8.67;;;5.50;;
60054;SDS011;45930;53.514;55.904;2022-12-29T03:56:42;10.73;;;5.33;;
60054;SDS011;45930;53.514;55.904;2022-12-29T03:57:42;7.97;;;5.33;;
60054;SDS011;45930;53.514;55.904;2022-12-29T03:58:43;8.77;;;5.13;;
60054;SDS011;45930;53.514;55.904;2022-12-29T03:59:44;8.73;;;4.80;;
60054;SDS011;45930;53.514;55.904;2022-12-29T04:00:45;11.37;;;5.43;;
60054;SDS011;45930;53.514;55.904;2022-12-29T04:01:45;7.93;;;5.33;;
60054;SDS011;45930;53.514;55.904;2022-12-29T04:02:46;10.07;;;4.80;;
60054;SDS011;45930;53.514;55.904;2022-12-29T04:03:47;8.37;;;5.23;;
60054;SDS011;45930;53.514;55.904;2022-12-29T04:04:48;7.07;;;4.33;;
60054;SDS011;45930;53.514;55.904;2022-12-29T04:05:48;9.40;;;4.93;;
60054;SDS011;45930;53.514;55.904;2022-12-29T04:06:49;9.53;;;4.80;;
60054;SDS011;45930;53.514;55.904;2022-12-29T04:07:50;9.63;;;4.50;;
60054;SDS011;45930;53.514;55.904;2022-12-29T04:08:50;8.07;;;4.37;;
60054;SDS011;45930;53.514;55.904;2022-12-29T04:09:51;9.30;;;4.67;;
60054;SDS011;45930;53.514;55.904;2022-12-29T04:10:52;9.07;;;4.47;;
60054;SDS011;45930;53.514;55.904;2022-12-29T04:11:53;8.67;;;4.57;;
60054;SDS011;45930;53.514;55.904;2022-12-29T04:12:53;8.77;;;5.07;;
60054;SDS011;45930;53.514;55.904;2022-12-29T04:13:54;10.03;;;4.63;;
60054;SDS011;45930;53.514;55.904;2022-12-29T04:14:55;8.70;;;4.60;;
60054;SDS011;45930;53.514;55.904;2022-12-29T04:15:56;8.97;;;5.77;;
60054;SDS011;45930;53.514;55.904;2022-12-29T04:16:56;8.93;;;4.80;;
60054;SDS011;45930;53.514;55.904;2022-12-29T04:17:57;10.87;;;4.97;;
60054;SDS011;45930;53.514;55.904;2022-12-29T04:18:58;13.17;;;5.37;;
60054;SDS011;45930;53.514;55.904;2022-12-29T04:19:59;9.80;;;4.80;;
60054;SDS011;45930;53.514;55.904;2022-12-29T04:21:18;9.33;;;4.67;;
60054;SDS011;45930;53.514;55.904;2022-12-29T04:22:18;7.37;;;4.77;;
60054;SDS011;45930;53.514;55.904;2022-12-29T04:23:20;10.15;;;4.97;;
60054;SDS011;45930;53.514;55.904;2022-12-29T04:24:20;12.33;;;5.57;;
60054;SDS011;45930;53.514;55.904;2022-12-29T04:25:21;10.87;;;5.23;;
60054;SDS011;45930;53.514;55.904;2022-12-29T04:26:22;8.23;;;4.87;;
60054;SDS011;45930;53.514;55.904;2022-12-29T04:27:22;8.80;;;5.37;;
60054;SDS011;45930;53.514;55.904;2022-12-29T04:28:23;8.40;;;4.93;;
60054;SDS011;45930;53.514;55.904;2022-12-29T04:29:24;9.97;;;5.13;;
60054;SDS011;45930;53.514;55.904;2022-12-29T04:30:25;7.87;;;4.50;;
60054;SDS011;45930;53.514;55.904;2022-12-29T04:31:25;9.27;;;5.10;;
60054;SDS011;45930;53.514;55.904;2022-12-29T04:32:26;8.83;;;4.57;;
60054;SDS011;45930;53.514;55.904;2022-12-29T04:33:27;11.00;;;5.27;;
60054;SDS011;45930;53.514;55.904;2022-12-29T04:34:28;10.17;;;4.80;;
60054;SDS011;45930;53.514;55.904;2022-12-29T04:35:29;12.90;;;5.17;;
60054;SDS011;45930;53.514;55.904;2022-12-29T04:36:29;14.10;;;5.33;;
60054;SDS011;45930;53.514;55.904;2022-12-29T04:37:30;10.33;;;4.90;;
60054;SDS011;45930;53.514;55.904;2022-12-29T04:38:31;12.40;;;4.90;;
60054;SDS011;45930;53.514;55.904;2022-12-29T04:39:32;7.13;;;4.83;;
60054;SDS011;45930;53.514;55.904;2022-12-29T04:40:34;12.32;;;5.25;;
60054;SDS011;45930;53.514;55.904;2022-12-29T04:41:35;12.30;;;5.57;;
60054;SDS011;45930;53.514;55.904;2022-12-29T04:42:35;11.00;;;5.30;;
60054;SDS011;45930;53.514;55.904;2022-12-29T04:43:36;10.23;;;5.03;;
60054;SDS011;45930;53.514;55.904;2022-12-29T04:44:37;8.80;;;5.40;;
60054;SDS011;45930;53.514;55.904;2022-12-29T04:45:38;10.63;;;4.73;;
60054;SDS011;45930;53.514;55.904;2022-12-29T04:46:43;10.50;;;5.70;;
60054;SDS011;45930;53.514;55.904;2022-12-29T04:47:43;8.53;;;4.13;;
60054;SDS011;45930;53.514;55.904;2022-12-29T04:48:44;9.73;;;5.23;;
60054;SDS011;45930;53.514;55.904;2022-12-29T04:49:45;8.30;;;5.37;;
60054;SDS011;45930;53.514;55.904;2022-12-29T04:50:47;10.33;;;5.80;;
60054;SDS011;45930;53.514;55.904;2022-12-29T04:51:49;8.87;;;4.87;;
60054;SDS011;45930;53.514;55.904;2022-12-29T04:52:49;12.03;;;5.40;;
60054;SDS011;45930;53.514;55.904;2022-12-29T04:53:50;9.53;;;5.27;;
60054;SDS011;45930;53.514;55.904;2022-12-29T04:54:51;10.03;;;5.53;;
60054;SDS011;45930;53.514;55.904;2022-12-29T04:55:52;9.10;;;4.93;;
60054;SDS011;45930;53.514;55.904;2022-12-29T04:56:53;8.87;;;4.67;;
60054;SDS011;45930;53.514;55.904;2022-12-29T04:57:54;10.53;;;5.53;;
60054;SDS011;45930;53.514;55.904;2022-12-29T04:58:55;11.77;;;4.87;;
60054;SDS011;45930;53.514;55.904;2022-12-29T04:59:55;11.33;;;4.53;;
60054;SDS011;45930;53.514;55.904;2022-12-29T05:00:56;8.57;;;5.20;;
60054;SDS011;45930;53.514;55.904;2022-12-29T05:01:57;7.93;;;4.83;;
60054;SDS011;45930;53.514;55.904;2022-12-29T05:02:58;9.53;;;5.67;;
60054;SDS011;45930;53.514;55.904;2022-12-29T05:03:59;10.67;;;4.80;;
60054;SDS011;45930;53.514;55.904;2022-12-29T05:05:00;11.47;;;4.83;;
60054;SDS011;45930;53.514;55.904;2022-12-29T05:06:00;13.00;;;5.47;;
60054;SDS011;45930;53.514;55.904;2022-12-29T05:07:01;8.93;;;4.13;;
60054;SDS011;45930;53.514;55.904;2022-12-29T05:08:02;10.63;;;4.90;;
60054;SDS011;45930;53.514;55.904;2022-12-29T05:09:03;8.70;;;4.40;;
60054;SDS011;45930;53.514;55.904;2022-12-29T05:10:04;9.70;;;5.33;;
60054;SDS011;45930;53.514;55.904;2022-12-29T05:11:06;9.77;;;5.53;;
60054;SDS011;45930;53.514;55.904;2022-12-29T05:12:07;11.93;;;5.00;;
60054;SDS011;45930;53.514;55.904;2022-12-29T05:13:08;8.93;;;4.87;;
60054;SDS011;45930;53.514;55.904;2022-12-29T05:14:08;9.93;;;5.53;;
60054;SDS011;45930;53.514;55.904;2022-12-29T05:15:10;10.17;;;4.97;;
60054;SDS011;45930;53.514;55.904;2022-12-29T05:16:11;11.60;;;5.17;;
60054;SDS011;45930;53.514;55.904;2022-12-29T05:19:08;11.57;;;4.80;;
60054;SDS011;45930;53.514;55.904;2022-12-29T05:20:09;9.80;;;5.20;;
60054;SDS011;45930;53.514;55.904;2022-12-29T05:21:10;7.33;;;4.33;;
60054;SDS011;45930;53.514;55.904;2022-12-29T05:22:11;11.43;;;5.13;;
60054;SDS011;45930;53.514;55.904;2022-12-29T05:23:12;10.80;;;4.93;;
60054;SDS011;45930;53.514;55.904;2022-12-29T05:24:14;10.13;;;4.73;;
60054;SDS011;45930;53.514;55.904;2022-12-29T05:25:15;8.50;;;4.90;;
60054;SDS011;45930;53.514;55.904;2022-12-29T05:26:16;9.77;;;5.30;;
60054;SDS011;45930;53.514;55.904;2022-12-29T05:27:17;11.43;;;6.37;;
60054;SDS011;45930;53.514;55.904;2022-12-29T05:28:17;9.53;;;4.47;;
60054;SDS011;45930;53.514;55.904;2022-12-29T05:29:18;10.90;;;5.13;;
60054;SDS011;45930;53.514;55.904;2022-12-29T05:30:19;8.80;;;4.90;;
60054;SDS011;45930;53.514;55.904;2022-12-29T05:31:20;7.13;;;4.67;;
60054;SDS011;45930;53.514;55.904;2022-12-29T05:32:21;10.73;;;4.70;;
60054;SDS011;45930;53.514;55.904;2022-12-29T05:33:21;10.47;;;4.60;;
60054;SDS011;45930;53.514;55.904;2022-12-29T05:34:22;11.23;;;5.20;;
60054;SDS011;45930;53.514;55.904;2022-12-29T05:35:23;12.00;;;6.10;;
60054;SDS011;45930;53.514;55.904;2022-12-29T05:36:24;10.07;;;5.07;;
60054;SDS011;45930;53.514;55.904;2022-12-29T05:37:25;10.63;;;4.87;;
60054;SDS011;45930;53.514;55.904;2022-12-29T05:38:25;9.23;;;4.77;;
60054;SDS011;45930;53.514;55.904;2022-12-29T05:39:26;11.27;;;5.17;;
60054;SDS011;45930;53.514;55.904;2022-12-29T05:40:27;10.37;;;5.17;;
60054;SDS011;45930;53.514;55.904;2022-12-29T05:41:27;9.50;;;4.47;;
60054;SDS011;45930;53.514;55.904;2022-12-29T05:42:28;9.27;;;5.30;;
60054;SDS011;45930;53.514;55.904;2022-12-29T05:43:29;12.53;;;5.77;;
60054;SDS011;45930;53.514;55.904;2022-12-29T05:44:30;8.37;;;4.63;;
60054;SDS011;45930;53.514;55.904;2022-12-29T05:45:30;7.93;;;4.50;;
60054;SDS011;45930;53.514;55.904;2022-12-29T05:46:31;9.10;;;4.90;;
60054;SDS011;45930;53.514;55.904;2022-12-29T05:47:32;8.33;;;4.57;;
60054;SDS011;45930;53.514;55.904;2022-12-29T05:48:33;9.53;;;4.63;;
60054;SDS011;45930;53.514;55.904;2022-12-29T05:49:34;11.57;;;5.87;;
60054;SDS011;45930;53.514;55.904;2022-12-29T05:50:35;8.60;;;4.30;;
60054;SDS011;45930;53.514;55.904;2022-12-29T05:53:32;9.40;;;5.50;;
60054;SDS011;45930;53.514;55.904;2022-12-29T05:54:33;10.77;;;5.80;;
60054;SDS011;45930;53.514;55.904;2022-12-29T05:55:34;9.63;;;4.40;;
60054;SDS011;45930;53.514;55.904;2022-12-29T05:56:35;10.20;;;5.17;;
60054;SDS011;45930;53.514;55.904;2022-12-29T05:57:36;8.07;;;3.97;;
60054;SDS011;45930;53.514;55.904;2022-12-29T05:58:37;12.20;;;5.43;;
60054;SDS011;45930;53.514;55.904;2022-12-29T05:59:37;10.20;;;4.27;;
60054;SDS011;45930;53.514;55.904;2022-12-29T06:00:38;10.53;;;5.17;;
60054;SDS011;45930;53.514;55.904;2022-12-29T06:01:39;9.40;;;4.63;;
60054;SDS011;45930;53.514;55.904;2022-12-29T06:02:40;12.17;;;5.80;;
60054;SDS011;45930;53.514;55.904;2022-12-29T06:03:41;12.30;;;5.37;;
60054;SDS011;45930;53.514;55.904;2022-12-29T06:04:42;14.17;;;5.67;;
60054;SDS011;45930;53.514;55.904;2022-12-29T06:05:44;11.13;;;5.00;;
60054;SDS011;45930;53.514;55.904;2022-12-29T06:06:49;9.17;;;5.27;;
60054;SDS011;45930;53.514;55.904;2022-12-29T06:07:50;11.57;;;5.27;;
60054;SDS011;45930;53.514;55.904;2022-12-29T06:08:50;15.07;;;5.50;;
60054;SDS011;45930;53.514;55.904;2022-12-29T06:09:54;12.63;;;5.97;;
60054;SDS011;45930;53.514;55.904;2022-12-29T06:10:55;11.07;;;5.40;;
60054;SDS011;45930;53.514;55.904;2022-12-29T06:11:56;12.53;;;5.53;;
60054;SDS011;45930;53.514;55.904;2022-12-29T06:12:57;7.43;;;4.50;;
60054;SDS011;45930;53.514;55.904;2022-12-29T06:13:58;13.47;;;5.90;;
60054;SDS011;45930;53.514;55.904;2022-12-29T06:14:58;10.07;;;4.87;;
60054;SDS011;45930;53.514;55.904;2022-12-29T06:15:59;10.13;;;5.03;;
60054;SDS011;45930;53.514;55.904;2022-12-29T06:17:00;18.90;;;6.23;;
60054;SDS011;45930;53.514;55.904;2022-12-29T06:18:01;10.80;;;5.03;;
60054;SDS011;45930;53.514;55.904;2022-12-29T06:19:02;13.10;;;5.13;;
60054;SDS011;45930;53.514;55.904;2022-12-29T06:20:03;13.20;;;5.90;;
60054;SDS011;45930;53.514;55.904;2022-12-29T06:21:04;10.27;;;5.70;;
60054;SDS011;45930;53.514;55.904;2022-12-29T06:22:05;9.57;;;5.27;;
60054;SDS011;45930;53.514;55.904;2022-12-29T06:23:07;11.47;;;5.17;;
60054;SDS011;45930;53.514;55.904;2022-12-29T06:24:09;13.30;;;5.53;;
60054;SDS011;45930;53.514;55.904;2022-12-29T06:25:11;13.33;;;6.40;;
60054;SDS011;45930;53.514;55.904;2022-12-29T06:26:12;10.80;;;5.40;;
60054;SDS011;45930;53.514;55.904;2022-12-29T06:27:13;11.27;;;5.07;;
60054;SDS011;45930;53.514;55.904;2022-12-29T06:28:14;9.60;;;5.33;;
60054;SDS011;45930;53.514;55.904;2022-12-29T06:29:15;9.87;;;4.50;;
60054;SDS011;45930;53.514;55.904;2022-12-29T06:30:17;16.37;;;6.63;;
60054;SDS011;45930;53.514;55.904;2022-12-29T06:31:18;12.97;;;5.47;;
60054;SDS011;45930;53.514;55.904;2022-12-29T06:32:19;10.37;;;5.00;;
60054;SDS011;45930;53.514;55.904;2022-12-29T06:33:20;12.30;;;5.50;;
60054;SDS011;45930;53.514;55.904;2022-12-29T06:34:21;17.50;;;5.70;;
60054;SDS011;45930;53.514;55.904;2022-12-29T06:35:22;12.00;;;5.57;;
60054;SDS011;45930;53.514;55.904;2022-12-29T06:36:23;20.00;;;5.93;;
60054;SDS011;45930;53.514;55.904;2022-12-29T06:37:24;17.23;;;6.60;;
60054;SDS011;45930;53.514;55.904;2022-12-29T06:38:25;9.30;;;5.00;;
60054;SDS011;45930;53.514;55.904;2022-12-29T06:39:26;9.77;;;5.10;;
60054;SDS011;45930;53.514;55.904;2022-12-29T06:40:27;16.67;;;5.50;;
60054;SDS011;45930;53.514;55.904;2022-12-29T06:41:28;13.50;;;6.33;;
60054;SDS011;45930;53.514;55.904;2022-12-29T06:42:28;12.10;;;5.50;;
60054;SDS011;45930;53.514;55.904;2022-12-29T06:43:29;14.03;;;5.37;;
60054;SDS011;45930;53.514;55.904;2022-12-29T06:44:30;10.77;;;5.07;;
60054;SDS011;45930;53.514;55.904;2022-12-29T06:45:31;16.23;;;6.17;;
60054;SDS011;45930;53.514;55.904;2022-12-29T06:46:32;11.93;;;5.57;;
60054;SDS011;45930;53.514;55.904;2022-12-29T06:47:33;13.83;;;6.27;;
60054;SDS011;45930;53.514;55.904;2022-12-29T06:48:35;13.07;;;5.00;;
60054;SDS011;45930;53.514;55.904;2022-12-29T06:49:36;12.37;;;5.60;;
60054;SDS011;45930;53.514;55.904;2022-12-29T06:50:37;10.63;;;4.90;;
60054;SDS011;45930;53.514;55.904;2022-12-29T06:51:37;14.40;;;5.17;;
60054;SDS011;45930;53.514;55.904;2022-12-29T06:52:38;17.27;;;6.33;;
60054;SDS011;45930;53.514;55.904;2022-12-29T06:53:39;20.07;;;6.57;;
60054;SDS011;45930;53.514;55.904;2022-12-29T06:54:40;13.10;;;5.53;;
60054;SDS011;45930;53.514;55.904;2022-12-29T06:55:41;17.73;;;6.00;;
60054;SDS011;45930;53.514;55.904;2022-12-29T06:56:43;12.00;;;5.23;;
60054;SDS011;45930;53.514;55.904;2022-12-29T06:57:44;15.13;;;5.93;;
60054;SDS011;45930;53.514;55.904;2022-12-29T06:58:45;16.83;;;6.07;;
60054;SDS011;45930;53.514;55.904;2022-12-29T06:59:45;18.33;;;6.03;;
60054;SDS011;45930;53.514;55.904;2022-12-29T07:00:46;12.17;;;5.30;;